Time;durP1;ratioP1;P1;durP2;ratioP2;P2;SDS_P1;SDS_P2;PMS_P1;PMS_P2;Temp;Humidity;BMP_temperature;BMP_pressure;BME280_temperature;BME280_humidity;BME280_pressure;Samples;Min_cycle;Max_cycle;Signal;HPM_P1;HPM_P2
2023/02/26 00:00:14;;;;;;;0.30;0.30;;;;;;;2.84;77.83;98433.84;5114441;28;20086;-67
2023/02/26 00:02:44;;;;;;;0.88;0.88;;;;;;;2.77;77.93;98429.56;5115498;28;20516;-67
2023/02/26 00:05:14;;;;;;;0.60;0.57;;;;;;;2.81;77.61;98416.19;5115524;28;20071;-67
2023/02/26 00:07:43;;;;;;;;;;;;;;;2.81;77.18;98406.13;5115878;28;20554;-66
2023/02/26 00:10:14;;;;;;;0.60;0.60;;;;;;;2.76;77.07;98405.22;5115144;28;19927;-66
2023/02/26 00:12:44;;;;;;;0.50;0.50;;;;;;;2.73;77.69;98409.38;5115689;28;20043;-66
2023/02/26 00:15:17;;;;;;;0.43;0.43;;;;;;;2.71;77.59;98403.50;5115315;28;20067;-67
2023/02/26 00:17:52;;;;;;;0.50;0.50;;;;;;;2.62;77.21;98375.72;5115628;28;20502;-67
2023/02/26 00:20:22;;;;;;;0.40;0.40;;;;;;;2.61;77.14;98384.13;5115298;28;20108;-67
2023/02/26 00:22:51;;;;;;;0.30;0.30;;;;;;;2.52;77.82;98394.06;5114911;28;20043;-67
2023/02/26 00:25:20;;;;;;;0.30;0.30;;;;;;;2.52;77.47;98403.31;5115130;28;20043;-66
2023/02/26 00:27:49;;;;;;;0.30;0.30;;;;;;;2.54;78.03;98415.06;5115382;28;20040;-67
2023/02/26 00:30:20;;;;;;;0.70;0.70;;;;;;;2.57;77.62;98441.97;5115061;28;20055;-66
2023/02/26 00:32:49;;;;;;;0.40;0.40;;;;;;;2.56;76.76;98441.13;5113940;28;20040;-66
2023/02/26 00:35:18;;;;;;;0.68;0.68;;;;;;;2.51;77.57;98436.88;5114939;28;20051;-66
2023/02/26 00:38:08;;;;;;;;;;;;;;;2.51;77.06;98457.00;5115648;28;20150;-67
2023/02/26 00:40:43;;;;;;;0.30;0.30;;;;;;;2.56;77.57;98453.72;5110387;28;20089;-67
2023/02/26 00:43:17;;;;;;;0.75;0.75;;;;;;;2.56;77.98;98456.25;5114886;28;20053;-66
2023/02/26 00:45:55;;;;;;;0.63;0.63;;;;;;;2.48;77.27;98460.34;5114781;28;20054;-66
2023/02/26 00:48:41;;;;;;;0.30;0.30;;;;;;;2.44;78.17;98456.09;5114142;28;20134;-67
2023/02/26 00:51:19;;;;;;;0.45;0.45;;;;;;;2.41;78.37;98461.09;5114695;28;20048;-67
2023/02/26 00:53:55;;;;;;;0.70;0.70;;;;;;;2.43;78.50;98454.41;5114617;28;20051;-67
2023/02/26 00:56:24;;;;;;;0.75;0.75;;;;;;;2.44;77.97;98456.09;5114931;28;20055;-66
2023/02/26 00:58:53;;;;;;;0.20;0.20;;;;;;;2.43;78.61;98464.47;5114527;28;20097;-67
2023/02/26 01:01:23;;;;;;;0.30;0.30;;;;;;;2.38;78.84;98455.16;5114503;28;20048;-67
2023/02/26 01:03:52;;;;;;;0.43;0.43;;;;;;;2.37;78.02;98451.84;5114488;28;20080;-67
2023/02/26 01:06:25;;;;;;;0.50;0.50;;;;;;;2.38;78.95;98456.00;5113547;28;20044;-66
2023/02/26 01:09:03;;;;;;;0.38;0.38;;;;;;;2.43;79.11;98463.63;5114716;28;20512;-67
2023/02/26 01:11:34;;;;;;;0.40;0.40;;;;;;;2.36;78.24;98467.75;5113189;28;20093;-66
2023/02/26 01:14:03;;;;;;;0.52;0.52;;;;;;;2.29;78.77;98481.09;5113398;28;20052;-67
2023/02/26 01:16:42;;;;;;;1.13;1.02;;;;;;;2.26;78.69;98480.19;5113315;28;20043;-67
2023/02/26 01:19:20;;;;;;;0.57;0.57;;;;;;;2.28;79.06;98471.84;5114510;28;20065;-66
2023/02/26 01:21:56;;;;;;;0.30;0.30;;;;;;;2.32;78.53;98465.19;5113940;28;20077;-67
2023/02/26 01:24:29;;;;;;;0.25;0.25;;;;;;;2.35;79.01;98481.16;5114265;28;20047;-66
2023/02/26 01:26:58;;;;;;;1.55;1.45;;;;;;;2.39;78.91;98469.47;5114712;28;20463;-67
2023/02/26 01:29:27;;;;;;;0.40;0.40;;;;;;;2.42;79.06;98462.81;5112911;28;20147;-67
2023/02/26 01:32:06;;;;;;;1.23;1.13;;;;;;;2.45;78.39;98442.66;5112902;28;20062;-66
2023/02/26 01:34:42;;;;;;;0.50;0.50;;;;;;;2.42;78.51;98414.97;5112830;28;20071;-67
2023/02/26 01:37:25;;;;;;;0.35;0.35;;;;;;;2.50;78.05;98389.84;5113171;28;20043;-67
2023/02/26 01:40:17;;;;;;;0.50;0.50;;;;;;;2.52;77.84;98373.94;5113389;28;20047;-66
2023/02/26 01:42:52;;;;;;;0.60;0.60;;;;;;;2.52;78.00;98389.03;5101802;28;20497;-66
2023/02/26 01:45:31;;;;;;;0.50;0.50;;;;;;;2.46;77.80;98408.28;5113881;28;20050;-66
2023/02/26 01:48:06;;;;;;;0.40;0.40;;;;;;;2.37;77.68;98414.06;5113884;28;20096;-66
2023/02/26 01:50:38;;;;;;;0.63;0.63;;;;;;;2.42;77.56;98387.28;5113318;28;20116;-66
2023/02/26 01:53:20;;;;;;;1.02;0.98;;;;;;;2.40;77.43;98393.94;5113100;28;20478;-67
2023/02/26 01:55:55;;;;;;;0.90;0.90;;;;;;;2.33;77.42;98416.50;5114054;28;20401;-66
2023/02/26 01:58:28;;;;;;;0.63;0.63;;;;;;;2.31;76.62;98414.00;5112667;28;20054;-67
2023/02/26 02:00:57;;;;;;;0.50;0.50;;;;;;;2.26;77.44;98410.56;5112626;28;20044;-66
2023/02/26 02:03:30;;;;;;;0.50;0.50;;;;;;;2.25;76.86;98408.91;5113684;28;20093;-67
2023/02/26 02:06:06;;;;;;;0.55;0.55;;;;;;;2.19;77.09;98451.59;5112661;28;20108;-66
2023/02/26 02:08:35;;;;;;;1.17;1.17;;;;;;;2.12;77.53;98482.53;5113971;28;20052;-66
2023/02/26 02:11:09;;;;;;;0.50;0.50;;;;;;;2.19;77.68;98486.81;5114035;28;20075;-66
2023/02/26 02:13:52;;;;;;;0.65;0.65;;;;;;;2.17;77.64;98491.00;5112807;28;20067;-66
2023/02/26 02:16:29;;;;;;;1.15;1.05;;;;;;;2.15;77.44;98492.66;5112660;28;20551;-66
2023/02/26 02:19:08;;;;;;;0.70;0.70;;;;;;;2.26;76.85;98493.63;5113760;28;20050;-67
2023/02/26 02:21:58;;;;;;;0.68;0.68;;;;;;;2.36;77.22;98503.00;5112422;28;20435;-67
2023/02/26 02:24:44;;;;;;;0.47;0.47;;;;;;;2.44;77.39;98500.56;5112461;28;20126;-66
2023/02/26 02:27:23;;;;;;;0.30;0.30;;;;;;;2.50;76.69;98516.59;5113505;28;20048;-66
2023/02/26 02:30:30;;;;;;;0.80;0.80;;;;;;;2.56;76.77;98501.56;5113869;28;20039;-66
2023/02/26 02:33:05;;;;;;;0.40;0.40;;;;;;;2.62;77.08;98471.41;5112832;28;20428;-66
2023/02/26 02:35:41;;;;;;;1.75;1.65;;;;;;;2.64;76.12;98462.19;5117314;28;20108;-66
2023/02/26 02:38:16;;;;;;;0.47;0.47;;;;;;;2.69;76.76;98480.72;5117452;28;20047;-66
2023/02/26 02:40:49;;;;;;;0.50;0.50;;;;;;;2.64;76.00;98499.97;5116873;28;20370;-67
2023/02/26 02:43:22;;;;;;;1.60;1.15;;;;;;;2.65;76.51;98496.63;5117126;28;20048;-66
2023/02/26 02:45:57;;;;;;;0.40;0.40;;;;;;;2.69;76.31;98493.31;5117520;28;20051;-66
2023/02/26 02:48:32;;;;;;;1.65;1.38;;;;;;;2.72;75.95;98498.38;5117323;28;20439;-67
2023/02/26 02:51:08;;;;;;;0.90;0.85;;;;;;;2.68;76.88;98496.66;5117055;27;20044;-66
2023/02/26 02:53:43;;;;;;;0.30;0.30;;;;;;;2.67;75.88;98494.13;5116129;28;20130;-66
2023/02/26 02:56:23;;;;;;;1.13;0.88;;;;;;;2.59;76.65;98478.91;5117538;28;20078;-67
2023/02/26 02:59:03;;;;;;;0.40;0.40;;;;;;;2.60;76.22;98518.38;5117117;28;20055;-66
2023/02/26 03:01:35;;;;;;;0.43;0.43;;;;;;;2.62;76.40;98536.88;5115678;28;20558;-67
2023/02/26 03:04:10;;;;;;;0.77;0.77;;;;;;;2.62;76.86;98536.88;5115512;28;20044;-67
2023/02/26 03:06:39;;;;;;;0.50;0.50;;;;;;;2.62;76.58;98534.34;5117066;28;20048;-66
2023/02/26 03:09:10;;;;;;;0.40;0.40;;;;;;;2.66;76.74;98552.88;5116644;28;20043;-66
2023/02/26 03:11:42;;;;;;;0.30;0.30;;;;;;;2.73;76.49;98578.13;5116610;28;20062;-67
2023/02/26 03:14:13;;;;;;;0.45;0.45;;;;;;;2.70;76.50;98573.09;5115390;28;20047;-66
2023/02/26 03:17:01;;;;;;;0.40;0.40;;;;;;;2.68;76.24;98562.16;5115334;28;20047;-67
2023/02/26 03:19:41;;;;;;;0.40;0.40;;;;;;;2.72;75.60;98553.78;5116441;28;20040;-66
2023/02/26 03:22:15;;;;;;;0.28;0.28;;;;;;;2.73;76.04;98550.44;5116577;28;20421;-66
2023/02/26 03:24:58;;;;;;;0.60;0.60;;;;;;;2.74;75.63;98561.34;5116292;28;20067;-67
2023/02/26 03:27:33;;;;;;;0.40;0.40;;;;;;;2.71;75.43;98556.31;5116355;28;20086;-66
2023/02/26 03:30:06;;;;;;;0.68;0.68;;;;;;;2.74;75.55;98551.28;5115064;28;20051;-66
2023/02/26 03:32:47;;;;;;;;;;;;;;;2.73;75.34;98562.19;5117542;28;20052;-66
2023/02/26 03:35:22;;;;;;;0.40;0.40;;;;;;;2.66;75.56;98573.84;5116217;28;19926;-66
2023/02/26 03:37:57;;;;;;;0.52;0.52;;;;;;;2.65;75.82;98581.41;5114973;28;20047;-66
2023/02/26 03:40:31;;;;;;;0.43;0.43;;;;;;;2.65;75.44;98567.16;5116276;28;20074;-67
2023/02/26 03:43:07;;;;;;;0.50;0.50;;;;;;;2.67;74.98;98579.75;5114841;28;20051;-66
2023/02/26 03:45:39;;;;;;;0.30;0.30;;;;;;;2.65;74.60;98581.41;5115585;28;20499;-67
2023/02/26 03:48:13;;;;;;;0.38;0.38;;;;;;;2.70;74.67;98595.75;5114803;28;20071;-66
2023/02/26 03:50:48;;;;;;;0.40;0.40;;;;;;;2.72;74.20;98568.91;5114945;28;20071;-66
2023/02/26 03:53:34;;;;;;;0.50;0.50;;;;;;;2.72;74.24;98584.03;5115816;28;20054;-66
2023/02/26 03:56:16;;;;;;;0.40;0.40;;;;;;;2.75;73.59;98584.88;5115767;28;20486;-66
2023/02/26 03:59:06;;;;;;;0.20;0.20;;;;;;;2.76;73.80;98563.91;5115272;28;20055;-66
2023/02/26 04:01:45;;;;;;;4.78;2.47;;;;;;;2.76;73.94;98559.69;5116021;28;20047;-66
2023/02/26 04:04:19;;;;;;;0.40;0.40;;;;;;;2.76;72.91;98579.03;5115577;28;20050;-67
2023/02/26 04:06:52;;;;;;;0.50;0.50;;;;;;;2.76;73.51;98574.81;5114375;28;20051;-66
2023/02/26 04:09:22;;;;;;;0.25;0.25;;;;;;;2.72;72.72;98573.94;5115530;28;20054;-66
2023/02/26 04:11:53;;;;;;;0.82;0.70;;;;;;;2.69;72.28;98578.09;5115432;28;20101;-66
2023/02/26 04:14:22;;;;;;;0.40;0.40;;;;;;;2.71;72.32;98582.31;5114233;28;20047;-66
2023/02/26 04:16:54;;;;;;;0.50;0.47;;;;;;;2.75;72.00;98583.22;5115373;28;20040;-66
2023/02/26 04:19:23;;;;;;;0.30;0.30;;;;;;;2.67;72.07;98595.69;5114408;28;20108;-67
2023/02/26 04:21:55;;;;;;;0.40;0.40;;;;;;;2.65;72.39;98589.81;5115195;28;20082;-67
2023/02/26 04:24:24;;;;;;;0.30;0.30;;;;;;;2.66;72.66;98583.94;5114270;28;20042;-66
2023/02/26 04:26:52;;;;;;;0.50;0.50;;;;;;;2.65;72.40;98594.84;5115111;28;20079;-66
2023/02/26 04:29:23;;;;;;;1.08;1.00;;;;;;;2.62;72.47;98599.84;5115087;28;20051;-66
2023/02/26 04:31:52;;;;;;;0.65;0.65;;;;;;;2.61;71.15;98605.72;5114070;28;20094;-66
2023/02/26 04:34:21;;;;;;;0.50;0.50;;;;;;;2.61;71.04;98623.34;5114993;28;20059;-66
2023/02/26 04:36:51;;;;;;;;;;;;;;;2.63;70.91;98634.28;5115404;28;20134;-66
2023/02/26 04:39:22;;;;;;;0.30;0.30;;;;;;;2.62;70.91;98642.66;5114009;28;19920;-66
2023/02/26 04:41:51;;;;;;;0.40;0.40;;;;;;;2.63;70.95;98651.06;5114896;28;20108;-66
2023/02/26 04:44:20;;;;;;;0.30;0.30;;;;;;;2.63;70.21;98656.94;5113889;28;20036;-66
2023/02/26 04:46:49;;;;;;;0.30;0.30;;;;;;;2.61;70.19;98661.13;5113855;28;20160;-66
2023/02/26 04:49:18;;;;;;;0.40;0.40;;;;;;;2.61;70.42;98648.53;5113957;28;20275;-66
2023/02/26 04:51:48;;;;;;;0.40;0.40;;;;;;;2.60;70.00;98649.34;5113779;28;20435;-66
2023/02/26 04:54:17;;;;;;;0.45;0.45;;;;;;;2.59;70.55;98650.16;5113752;28;20382;-66
2023/02/26 04:56:48;;;;;;;0.40;0.40;;;;;;;2.59;70.29;98657.72;5112831;28;20505;-66
2023/02/26 04:59:16;;;;;;;0.35;0.35;;;;;;;2.62;70.32;98664.47;5114855;28;20105;-66
2023/02/26 05:01:46;;;;;;;0.20;0.20;;;;;;;2.61;69.81;98657.75;5113261;28;20036;-66
2023/02/26 05:04:15;;;;;;;0.85;0.85;;;;;;;2.57;69.94;98641.72;5113488;28;20047;-66
2023/02/26 05:06:49;;;;;;;1.30;1.23;;;;;;;2.52;69.00;98655.94;5114464;28;20051;-66
2023/02/26 05:09:18;;;;;;;0.40;0.40;;;;;;;2.52;69.31;98655.94;5115087;28;20381;-66
2023/02/26 05:11:48;;;;;;;0.50;0.50;;;;;;;2.54;69.18;98650.94;5113459;28;20039;-66
2023/02/26 05:14:17;;;;;;;1.85;1.00;;;;;;;2.54;69.83;98654.28;5113469;28;20047;-66
2023/02/26 05:16:49;;;;;;;0.60;0.60;;;;;;;2.51;68.95;98664.31;5114612;28;20048;-66
2023/02/26 05:19:18;;;;;;;0.60;0.60;;;;;;;2.47;68.85;98647.47;5113037;28;20101;-67
2023/02/26 05:21:50;;;;;;;2.53;2.05;;;;;;;2.41;69.61;98652.41;5114136;28;20292;-66
2023/02/26 05:24:18;;;;;;;0.30;0.30;;;;;;;2.43;68.96;98653.28;5113475;28;20039;-66
2023/02/26 05:26:49;;;;;;;0.30;0.30;;;;;;;2.42;69.40;98654.13;5113450;28;20032;-66
2023/02/26 05:29:18;;;;;;;0.38;0.38;;;;;;;2.37;69.23;98654.88;5113490;28;20067;-67
2023/02/26 05:31:47;;;;;;;0.40;0.40;;;;;;;2.34;70.01;98664.88;5114371;28;20047;-66
2023/02/26 05:34:17;;;;;;;0.70;0.70;;;;;;;2.32;69.64;98662.34;5114037;28;20100;-66
2023/02/26 05:36:46;;;;;;;0.63;0.55;;;;;;;2.36;69.26;98648.97;5114034;28;20050;-66
2023/02/26 05:39:15;;;;;;;0.47;0.47;;;;;;;2.39;69.71;98664.16;5113986;28;20077;-66
2023/02/26 05:41:45;;;;;;;0.50;0.50;;;;;;;2.35;69.86;98666.59;5113994;28;20048;-66
2023/02/26 05:44:15;;;;;;;0.60;0.60;;;;;;;2.37;69.17;98675.88;5113748;28;20048;-66
2023/02/26 05:46:44;;;;;;;0.75;0.75;;;;;;;2.39;69.53;98689.31;5114061;28;20553;-66
2023/02/26 05:49:13;;;;;;;0.60;0.60;;;;;;;2.33;69.99;98679.13;5113901;28;20130;-66
2023/02/26 05:51:42;;;;;;;0.50;0.50;;;;;;;2.34;69.90;98685.88;5113880;28;20050;-66
2023/02/26 05:54:12;;;;;;;0.50;0.50;;;;;;;2.31;69.97;98690.84;5114095;28;20043;-66
2023/02/26 05:56:41;;;;;;;1.40;1.30;;;;;;;2.28;70.18;98682.44;5114081;28;20047;-66
2023/02/26 05:59:09;;;;;;;0.40;0.40;;;;;;;2.25;70.59;98690.78;5114397;28;20614;-66
2023/02/26 06:01:41;;;;;;;0.20;0.20;;;;;;;2.25;69.99;98684.88;5114121;28;20464;-66
2023/02/26 06:04:10;;;;;;;0.30;0.30;;;;;;;2.27;69.95;98689.13;5114087;28;20047;-66
2023/02/26 06:06:39;;;;;;;0.40;0.40;;;;;;;2.33;70.39;98699.28;5113680;28;20093;-66
2023/02/26 06:09:08;;;;;;;0.65;0.65;;;;;;;2.36;71.20;98709.41;5116094;28;20065;-66
2023/02/26 06:11:38;;;;;;;0.40;0.40;;;;;;;2.37;71.01;98711.09;5117776;28;20054;-66
2023/02/26 06:14:07;;;;;;;1.85;1.60;;;;;;;2.39;71.01;98732.09;5117706;28;20089;-66
2023/02/26 06:16:36;;;;;;;0.98;0.90;;;;;;;2.44;70.75;98745.63;5117933;28;20059;-66
2023/02/26 06:19:06;;;;;;;0.80;0.80;;;;;;;2.47;70.57;98747.34;5117546;28;20482;-66
2023/02/26 06:21:35;;;;;;;0.43;0.43;;;;;;;2.49;70.55;98750.72;5117354;28;20071;-67
2023/02/26 06:24:04;;;;;;;1.00;0.97;;;;;;;2.57;70.02;98755.06;5117813;28;20043;-66
2023/02/26 06:26:33;;;;;;;7.07;2.15;;;;;;;2.66;70.89;98754.38;5117441;28;20372;-66
2023/02/26 06:29:02;;;;;;;0.68;0.68;;;;;;;2.71;70.57;98761.16;5117746;28;20036;-66
2023/02/26 06:31:31;;;;;;;0.50;0.50;;;;;;;2.76;70.82;98765.44;5117413;28;20044;-66
2023/02/26 06:33:59;;;;;;;0.50;0.50;;;;;;;2.79;70.17;98773.00;5117698;28;20127;-66
2023/02/26 06:36:30;;;;;;;0.38;0.38;;;;;;;2.79;70.52;98778.91;5117292;28;20520;-66
2023/02/26 06:38:58;;;;;;;0.50;0.50;;;;;;;2.87;70.44;98784.06;5117375;28;20490;-66
2023/02/26 06:41:27;;;;;;;0.60;0.60;;;;;;;2.88;70.66;98780.72;5117538;28;20122;-66
2023/02/26 06:43:56;;;;;;;;;;;;;;;2.93;70.53;98789.19;5117588;28;20050;-66
2023/02/26 06:46:25;;;;;;;0.22;0.22;;;;;;;2.96;69.71;98794.28;5117201;28;20022;-66
2023/02/26 06:48:55;;;;;;;3.08;1.92;;;;;;;3.01;69.98;98797.72;5116990;28;20046;-66
2023/02/26 06:51:24;;;;;;;0.63;0.60;;;;;;;3.03;69.41;98793.53;5117013;28;20111;-66
2023/02/26 06:53:54;;;;;;;0.40;0.40;;;;;;;3.08;69.89;98802.00;5116989;28;20052;-66
2023/02/26 06:56:23;;;;;;;0.75;0.75;;;;;;;3.07;69.90;98797.81;5116958;27;20048;-66
2023/02/26 06:58:53;;;;;;;1.05;0.90;;;;;;;3.09;69.98;98791.13;5117206;28;20077;-66
2023/02/26 07:01:23;;;;;;;0.30;0.30;;;;;;;3.11;69.40;98786.94;5116862;28;20135;-66
2023/02/26 07:03:51;;;;;;;0.20;0.20;;;;;;;3.11;69.04;98802.06;5116853;28;20118;-65
2023/02/26 07:06:20;;;;;;;1.35;1.27;;;;;;;3.18;69.33;98813.94;5116662;28;20085;-65
2023/02/26 07:09:07;;;;;;;2.92;1.25;;;;;;;3.21;68.61;98821.53;5116715;28;20048;-66
2023/02/26 07:11:36;;;;;;;1.13;1.13;;;;;;;3.16;68.87;98825.66;5116637;28;20035;-66
2023/02/26 07:14:04;;;;;;;0.30;0.30;;;;;;;3.15;68.82;98819.75;5116882;28;20134;-66
2023/02/26 07:16:33;;;;;;;0.40;0.40;;;;;;;3.15;68.40;98824.81;5116727;28;20523;-66
2023/02/26 07:19:02;;;;;;;0.20;0.20;;;;;;;3.17;68.20;98829.88;5116375;28;20043;-66
2023/02/26 07:21:31;;;;;;;0.30;0.30;;;;;;;3.16;68.96;98825.66;5115535;28;20044;-66
2023/02/26 07:24:00;;;;;;;1.10;1.10;;;;;;;3.16;69.17;98838.28;5116398;28;20032;-66
2023/02/26 07:26:32;;;;;;;0.65;0.65;;;;;;;3.13;69.14;98838.22;5116689;28;20071;-66
2023/02/26 07:29:01;;;;;;;0.30;0.30;;;;;;;3.15;68.76;98836.56;5116564;28;20046;-66
2023/02/26 07:31:29;;;;;;;0.30;0.30;;;;;;;3.15;68.90;98841.59;5116224;28;20039;-66
2023/02/26 07:33:58;;;;;;;3.13;2.15;;;;;;;3.11;68.92;98839.88;5116416;28;20027;-66
2023/02/26 07:36:27;;;;;;;0.50;0.50;;;;;;;3.11;67.97;98833.16;5116097;28;20096;-66
2023/02/26 07:38:56;;;;;;;0.40;0.40;;;;;;;3.07;68.12;98841.47;5116041;28;20039;-66
2023/02/26 07:41:25;;;;;;;0.20;0.20;;;;;;;3.08;67.74;98833.09;5116358;28;20089;-66
2023/02/26 07:43:55;;;;;;;0.40;0.40;;;;;;;3.16;68.47;98833.22;5116020;28;20040;-65
2023/02/26 07:46:24;;;;;;;0.22;0.22;;;;;;;3.23;68.12;98830.81;5116010;27;20044;-66
2023/02/26 07:48:53;;;;;;;0.60;0.60;;;;;;;3.26;67.39;98830.03;5115944;28;20051;-66
2023/02/26 07:51:22;;;;;;;0.52;0.52;;;;;;;3.44;66.99;98835.31;5116095;28;20457;-66
2023/02/26 07:53:51;;;;;;;0.30;0.30;;;;;;;3.63;67.39;98837.25;5116336;27;20613;-66
2023/02/26 07:56:19;;;;;;;0.30;0.30;;;;;;;3.77;67.10;98839.94;5116217;28;20181;-66
2023/02/26 07:58:48;;;;;;;0.60;0.60;;;;;;;3.83;66.91;98845.94;5115643;28;20036;-66
2023/02/26 08:01:19;;;;;;;0.93;0.93;;;;;;;4.05;65.83;98847.84;5115698;28;20043;-66
2023/02/26 08:03:48;;;;;;;0.30;0.30;;;;;;;4.30;65.60;98845.59;5115555;28;20126;-66
2023/02/26 08:06:17;;;;;;;0.30;0.30;;;;;;;4.33;64.53;98848.16;5115474;28;20039;-65
2023/02/26 08:08:46;;;;;;;0.40;0.40;;;;;;;4.35;63.63;98847.34;5115459;28;20043;-66
2023/02/26 08:11:15;;;;;;;0.30;0.30;;;;;;;4.52;63.18;98850.03;5115761;28;20295;-66
2023/02/26 08:13:43;;;;;;;0.63;0.63;;;;;;;4.55;62.51;98855.13;5115385;28;20074;-66
2023/02/26 08:16:12;;;;;;;0.40;0.40;;;;;;;4.63;62.29;98858.59;5114212;28;20371;-66
2023/02/26 08:18:43;;;;;;;5.05;0.88;;;;;;;4.69;61.31;98854.44;5115637;28;20040;-66
2023/02/26 08:21:12;;;;;;;0.52;0.52;;;;;;;4.75;60.80;98863.75;5115594;28;20508;-65
2023/02/26 08:23:41;;;;;;;0.40;0.40;;;;;;;4.73;61.06;98865.41;5115302;28;20081;-66
2023/02/26 08:26:12;;;;;;;0.63;0.63;;;;;;;4.64;60.43;98875.44;5114993;28;20118;-66
2023/02/26 08:28:41;;;;;;;1.30;1.20;;;;;;;4.64;60.65;98871.22;5115541;28;20062;-67
2023/02/26 08:31:10;;;;;;;0.77;0.77;;;;;;;4.56;60.85;98871.97;5114921;28;20047;-66
2023/02/26 08:33:43;;;;;;;1.10;1.05;;;;;;;4.63;60.55;98878.81;5115100;28;20078;-67
2023/02/26 08:36:13;;;;;;;0.70;0.70;;;;;;;4.73;59.93;98871.31;5114970;28;20520;-67
2023/02/26 08:38:42;;;;;;;0.63;0.63;;;;;;;4.90;59.80;98873.97;5114972;28;20052;-66
2023/02/26 08:41:11;;;;;;;1.07;1.07;;;;;;;5.01;58.70;98869.88;5115025;28;20538;-68
2023/02/26 08:43:39;;;;;;;0.30;0.30;;;;;;;5.21;58.53;98886.03;5114824;28;20035;-67
2023/02/26 08:46:08;;;;;;;0.30;0.30;;;;;;;5.38;58.17;98874.38;5115060;28;20119;-66
2023/02/26 08:48:37;;;;;;;1.00;1.00;;;;;;;5.49;58.05;98876.97;5114606;28;20131;-67
2023/02/26 08:51:07;;;;;;;0.47;0.47;;;;;;;5.69;58.23;98875.38;5114733;28;20046;-66
2023/02/26 08:53:36;;;;;;;1.30;1.20;;;;;;;5.57;57.14;98880.38;5114666;28;20101;-66
2023/02/26 08:56:05;;;;;;;0.50;0.50;;;;;;;5.54;56.69;98889.66;5115211;28;20042;-67
2023/02/26 08:58:34;;;;;;;0.50;0.50;;;;;;;5.63;56.10;98884.63;5114473;28;20047;-67
2023/02/26 09:01:04;;;;;;;0.50;0.50;;;;;;;5.76;55.67;98896.53;5114522;28;20032;-67
2023/02/26 09:03:32;;;;;;;0.50;0.50;;;;;;;5.71;54.58;98893.13;5113200;28;20126;-67
2023/02/26 09:06:01;;;;;;;0.30;0.30;;;;;;;5.70;54.62;98896.50;5114489;28;20118;-66
2023/02/26 09:08:33;;;;;;;0.55;0.55;;;;;;;5.48;53.89;98910.69;5114315;28;20085;-67
2023/02/26 09:11:03;;;;;;;0.63;0.63;;;;;;;5.29;53.70;98909.72;5114668;28;20040;-67
2023/02/26 09:13:32;;;;;;;0.30;0.30;;;;;;;5.34;53.22;98917.34;5114358;28;20075;-67
2023/02/26 09:16:00;;;;;;;0.30;0.30;;;;;;;5.46;53.47;98926.69;5114543;28;20143;-66
2023/02/26 09:18:29;;;;;;;0.52;0.52;;;;;;;5.55;53.01;98922.53;5113056;28;20044;-67
2023/02/26 09:20:58;;;;;;;0.83;0.57;;;;;;;5.83;53.41;98928.66;5114474;28;20119;-70
2023/02/26 09:23:27;;;;;;;0.28;0.28;;;;;;;5.86;52.62;98936.28;5114320;28;20109;-67
2023/02/26 09:25:58;;;;;;;0.28;0.28;;;;;;;5.66;51.64;98942.88;5114064;28;20131;-66
2023/02/26 09:28:27;;;;;;;0.30;0.30;;;;;;;5.64;51.36;98952.16;5112883;28;20044;-66
2023/02/26 09:30:56;;;;;;;3.60;1.17;;;;;;;5.62;51.49;98953.78;5114248;28;20126;-66
2023/02/26 09:33:24;;;;;;;0.77;0.77;;;;;;;5.81;51.39;98955.63;5114059;28;20036;-67
2023/02/26 09:35:53;;;;;;;0.30;0.30;;;;;;;5.90;51.12;98960.78;5114057;28;20044;-66
2023/02/26 09:38:22;;;;;;;0.50;0.50;;;;;;;5.92;50.63;98961.66;5113604;28;20044;-66
2023/02/26 09:40:54;;;;;;;0.30;0.30;;;;;;;5.90;50.49;98965.84;5114017;28;20047;-68
2023/02/26 09:43:47;;;;;;;0.30;0.30;;;;;;;5.78;50.64;98978.41;5113327;28;20154;-69
2023/02/26 09:46:29;;;;;;;0.30;0.30;;;;;;;5.85;50.42;98968.38;5113911;28;20494;-67
2023/02/26 09:49:07;;;;;;;1.35;1.25;;;;;;;6.05;50.97;98963.41;5113978;28;20098;-67
2023/02/26 09:51:36;;;;;;;0.30;0.30;;;;;;;6.12;50.59;98967.66;5114041;28;20054;-66
2023/02/26 09:54:10;;;;;;;;;;;;;;;6.30;51.05;98972.81;5113072;28;20071;-66
2023/02/26 09:56:40;;;;;;;1.85;1.58;;;;;;;6.77;51.96;98974.72;5113459;28;20472;-66
2023/02/26 09:59:11;;;;;;;0.32;0.32;;;;;;;6.79;50.32;98975.56;5114395;28;20126;-66
2023/02/26 10:01:48;;;;;;;0.40;0.40;;;;;;;6.93;50.52;98982.34;5114200;28;20039;-67
2023/02/26 10:04:26;;;;;;;1.15;1.08;;;;;;;7.08;49.98;98982.38;5113773;28;20130;-66
2023/02/26 10:07:15;;;;;;;0.30;0.30;;;;;;;6.93;50.42;98984.03;5114372;28;20043;-67
2023/02/26 10:09:57;;;;;;;0.57;0.57;;;;;;;6.67;49.48;98994.94;5114303;28;20455;-67
2023/02/26 10:12:28;;;;;;;0.35;0.35;;;;;;;6.44;49.90;99011.75;5114109;28;20512;-68
2023/02/26 10:15:03;;;;;;;0.82;0.82;;;;;;;6.10;50.18;98994.66;5114240;28;20044;-67
2023/02/26 10:17:39;;;;;;;0.77;0.77;;;;;;;5.96;50.78;99012.31;5113925;28;20046;-67
2023/02/26 10:20:17;;;;;;;0.40;0.40;;;;;;;6.02;50.89;99012.34;5113651;28;20074;-67
2023/02/26 10:22:56;;;;;;;0.47;0.47;;;;;;;5.97;51.31;99008.09;5113374;28;20056;-66
2023/02/26 10:25:29;;;;;;;0.32;0.32;;;;;;;6.21;52.07;99017.53;5113987;28;20043;-66
2023/02/26 10:28:06;;;;;;;0.73;0.73;;;;;;;6.42;51.89;99018.50;5113454;28;20040;-66
2023/02/26 10:30:41;;;;;;;0.40;0.40;;;;;;;6.56;51.48;99028.69;5113901;28;20505;-66
2023/02/26 10:33:19;;;;;;;0.30;0.30;;;;;;;6.72;50.73;99028.75;5113502;28;20109;-67
2023/02/26 10:35:53;;;;;;;2.10;1.00;;;;;;;6.38;49.72;99034.50;5113893;28;20389;-66
2023/02/26 10:38:25;;;;;;;0.52;0.52;;;;;;;6.28;50.49;99045.47;5113549;28;20039;-67
2023/02/26 10:41:01;;;;;;;0.65;0.63;;;;;;;6.47;50.36;99054.00;5113946;28;20039;-67
2023/02/26 10:43:34;;;;;;;1.25;1.15;;;;;;;6.67;49.70;99060.84;5113460;28;20056;-68
2023/02/26 10:46:19;;;;;;;0.68;0.68;;;;;;;6.58;49.21;99065.88;5113580;28;20043;-67
2023/02/26 10:49:02;;;;;;;0.50;0.50;;;;;;;6.77;48.72;99066.00;5113414;28;20067;-67
2023/02/26 10:51:35;;;;;;;0.32;0.32;;;;;;;6.86;48.29;99071.09;5113280;28;20474;-66
2023/02/26 10:54:13;;;;;;;1.80;0.93;;;;;;;6.90;47.66;99080.41;5113242;28;20039;-68
2023/02/26 10:56:42;;;;;;;0.35;0.35;;;;;;;7.08;47.46;99083.03;5115881;28;20040;-67
2023/02/26 10:59:11;;;;;;;0.30;0.30;;;;;;;7.30;47.86;99089.84;5115834;28;20040;-67
2023/02/26 11:01:42;;;;;;;0.30;0.30;;;;;;;7.30;46.67;99087.31;5116842;28;20050;-68
2023/02/26 11:04:14;;;;;;;0.90;0.82;;;;;;;7.21;46.10;99088.13;5116856;28;20047;-67
2023/02/26 11:06:46;;;;;;;0.50;0.50;;;;;;;7.39;46.77;99084.78;5116800;28;20048;-67
2023/02/26 11:09:22;;;;;;;0.40;0.40;;;;;;;7.21;45.64;99066.97;5116973;28;20512;-67
2023/02/26 11:11:53;;;;;;;0.47;0.47;;;;;;;7.22;45.73;99071.22;5115420;28;20122;-67
2023/02/26 11:14:23;;;;;;;0.20;0.20;;;;;;;7.18;45.09;99077.13;5116007;28;20043;-66
2023/02/26 11:17:01;;;;;;;0.20;0.20;;;;;;;6.74;44.60;99080.31;5116034;27;20032;-66
2023/02/26 11:19:36;;;;;;;0.50;0.50;;;;;;;6.90;44.58;99093.09;5116211;28;20047;-65
2023/02/26 11:22:08;;;;;;;0.75;0.68;;;;;;;7.03;45.24;99089.78;5115934;28;20047;-68
2023/02/26 11:24:40;;;;;;;0.50;0.50;;;;;;;6.98;45.60;99081.28;5117018;28;20044;-66
2023/02/26 11:27:14;;;;;;;0.30;0.30;;;;;;;6.81;44.98;99087.97;5116620;28;20074;-66
2023/02/26 11:29:49;;;;;;;0.60;0.60;;;;;;;6.78;45.83;99093.03;5116583;28;20449;-67
2023/02/26 11:32:24;;;;;;;0.30;0.30;;;;;;;6.66;45.67;99078.59;5116353;28;20208;-66
2023/02/26 11:34:55;;;;;;;0.20;0.20;;;;;;;6.45;45.75;99098.78;5116217;28;20040;-66
2023/02/26 11:37:29;;;;;;;0.32;0.32;;;;;;;6.55;45.71;99098.81;5116197;28;20044;-66
2023/02/26 11:40:00;;;;;;;0.32;0.32;;;;;;;6.54;45.17;99101.34;5116392;28;20523;-66
2023/02/26 11:42:29;;;;;;;0.40;0.40;;;;;;;6.55;44.39;99091.22;5116535;28;20134;-66
2023/02/26 11:44:58;;;;;;;0.30;0.30;;;;;;;6.79;44.24;99102.34;5116294;28;20040;-67
2023/02/26 11:47:31;;;;;;;0.77;0.77;;;;;;;6.90;44.26;99098.16;5115796;28;20081;-66
2023/02/26 11:50:04;;;;;;;0.30;0.30;;;;;;;6.90;44.52;99100.69;5116227;28;20048;-66
2023/02/26 11:52:35;;;;;;;0.50;0.50;;;;;;;6.75;44.80;99109.06;5115866;28;20040;-66
2023/02/26 11:55:18;;;;;;;0.20;0.20;;;;;;;6.73;45.35;99106.53;5115771;28;20062;-66
2023/02/26 11:57:54;;;;;;;0.45;0.45;;;;;;;6.63;45.20;99109.88;5116063;28;20031;-66
2023/02/26 12:00:29;;;;;;;0.40;0.40;;;;;;;6.46;44.54;99115.66;5116371;28;20485;-66
2023/02/26 12:03:04;;;;;;;0.30;0.30;;;;;;;6.70;45.10;99106.53;5115765;28;20044;-67
2023/02/26 12:05:33;;;;;;;0.55;0.30;;;;;;;6.96;44.39;99104.09;5115739;28;20046;-65
2023/02/26 12:08:06;;;;;;;0.32;0.32;;;;;;;7.13;44.36;99099.09;5115668;28;20401;-66